sensor_id;sensor_type;location;lat;lon;timestamp;P1;durP1;ratioP1;P2;durP2;ratioP2
52894;SDS011;38759;53.396;6.722;2023-03-19T00:02:19;25.42;;;17.23;;
52894;SDS011;38759;53.396;6.722;2023-03-19T00:04:46;31.33;;;28.02;;
52894;SDS011;38759;53.396;6.722;2023-03-19T00:07:12;29.08;;;25.30;;
52894;SDS011;38759;53.396;6.722;2023-03-19T00:09:37;24.88;;;17.15;;
52894;SDS011;38759;53.396;6.722;2023-03-19T00:12:03;26.27;;;17.35;;
52894;SDS011;38759;53.396;6.722;2023-03-19T00:14:30;30.63;;;17.60;;
52894;SDS011;38759;53.396;6.722;2023-03-19T00:16:55;27.45;;;18.67;;
52894;SDS011;38759;53.396;6.722;2023-03-19T00:19:21;31.85;;;27.80;;
52894;SDS011;38759;53.396;6.722;2023-03-19T00:21:47;31.02;;;19.73;;
52894;SDS011;38759;53.396;6.722;2023-03-19T00:24:12;26.65;;;18.75;;
52894;SDS011;38759;53.396;6.722;2023-03-19T00:26:38;29.35;;;18.83;;
52894;SDS011;38759;53.396;6.722;2023-03-19T00:29:04;33.50;;;21.13;;
52894;SDS011;38759;53.396;6.722;2023-03-19T00:31:30;30.02;;;26.80;;
52894;SDS011;38759;53.396;6.722;2023-03-19T00:33:56;34.25;;;30.25;;
52894;SDS011;38759;53.396;6.722;2023-03-19T00:36:23;32.42;;;27.35;;
52894;SDS011;38759;53.396;6.722;2023-03-19T00:38:49;29.98;;;26.58;;
52894;SDS011;38759;53.396;6.722;2023-03-19T00:41:15;28.80;;;19.55;;
52894;SDS011;38759;53.396;6.722;2023-03-19T00:43:42;30.05;;;19.48;;
52894;SDS011;38759;53.396;6.722;2023-03-19T00:46:08;28.35;;;19.70;;
52894;SDS011;38759;53.396;6.722;2023-03-19T00:48:33;31.60;;;28.20;;
52894;SDS011;38759;53.396;6.722;2023-03-19T00:51:03;32.17;;;20.80;;
52894;SDS011;38759;53.396;6.722;2023-03-19T00:53:31;30.45;;;20.23;;
52894;SDS011;38759;53.396;6.722;2023-03-19T00:55:56;28.63;;;20.70;;
52894;SDS011;38759;53.396;6.722;2023-03-19T00:58:23;36.55;;;21.20;;
52894;SDS011;38759;53.396;6.722;2023-03-19T01:00:51;34.22;;;29.63;;
52894;SDS011;38759;53.396;6.722;2023-03-19T01:03:17;34.88;;;31.08;;
52894;SDS011;38759;53.396;6.722;2023-03-19T01:05:43;37.00;;;30.48;;
52894;SDS011;38759;53.396;6.722;2023-03-19T01:08:11;36.30;;;30.65;;
52894;SDS011;38759;53.396;6.722;2023-03-19T01:10:37;33.85;;;21.83;;
52894;SDS011;38759;53.396;6.722;2023-03-19T01:13:02;34.05;;;22.55;;
52894;SDS011;38759;53.396;6.722;2023-03-19T01:15:28;32.53;;;21.67;;
52894;SDS011;38759;53.396;6.722;2023-03-19T01:17:54;35.75;;;21.20;;
52894;SDS011;38759;53.396;6.722;2023-03-19T01:20:20;33.65;;;21.27;;
52894;SDS011;38759;53.396;6.722;2023-03-19T01:22:48;37.10;;;31.45;;
52894;SDS011;38759;53.396;6.722;2023-03-19T01:25:13;36.15;;;31.40;;
52894;SDS011;38759;53.396;6.722;2023-03-19T01:27:40;37.22;;;30.65;;
52894;SDS011;38759;53.396;6.722;2023-03-19T01:30:06;33.17;;;22.35;;
52894;SDS011;38759;53.396;6.722;2023-03-19T01:32:33;37.13;;;22.08;;
52894;SDS011;38759;53.396;6.722;2023-03-19T01:34:58;32.08;;;20.15;;
52894;SDS011;38759;53.396;6.722;2023-03-19T01:37:24;38.72;;;31.92;;
52894;SDS011;38759;53.396;6.722;2023-03-19T01:39:53;34.30;;;30.45;;
52894;SDS011;38759;53.396;6.722;2023-03-19T01:42:18;35.22;;;31.35;;
52894;SDS011;38759;53.396;6.722;2023-03-19T01:44:44;36.42;;;20.85;;
52894;SDS011;38759;53.396;6.722;2023-03-19T01:47:31;38.10;;;32.15;;
52894;SDS011;38759;53.396;6.722;2023-03-19T01:50:02;32.63;;;28.65;;
52894;SDS011;38759;53.396;6.722;2023-03-19T01:52:31;37.83;;;32.00;;
52894;SDS011;38759;53.396;6.722;2023-03-19T01:54:58;36.13;;;22.02;;
52894;SDS011;38759;53.396;6.722;2023-03-19T01:57:29;36.20;;;20.80;;
52894;SDS011;38759;53.396;6.722;2023-03-19T01:59:58;36.78;;;29.90;;
52894;SDS011;38759;53.396;6.722;2023-03-19T02:02:26;34.40;;;20.60;;
52894;SDS011;38759;53.396;6.722;2023-03-19T02:04:57;32.03;;;28.50;;
52894;SDS011;38759;53.396;6.722;2023-03-19T02:07:30;35.42;;;28.20;;
52894;SDS011;38759;53.396;6.722;2023-03-19T02:09:58;33.20;;;21.88;;
52894;SDS011;38759;53.396;6.722;2023-03-19T02:12:25;31.63;;;19.77;;
52894;SDS011;38759;53.396;6.722;2023-03-19T02:14:51;36.92;;;20.48;;
52894;SDS011;38759;53.396;6.722;2023-03-19T02:17:18;34.60;;;20.08;;
52894;SDS011;38759;53.396;6.722;2023-03-19T02:22:22;32.72;;;20.02;;
52894;SDS011;38759;53.396;6.722;2023-03-19T02:27:49;28.02;;;24.98;;
52894;SDS011;38759;53.396;6.722;2023-03-19T02:30:26;32.33;;;19.05;;
52894;SDS011;38759;53.396;6.722;2023-03-19T02:32:53;32.30;;;27.00;;
52894;SDS011;38759;53.396;6.722;2023-03-19T02:35:19;27.98;;;18.52;;
52894;SDS011;38759;53.396;6.722;2023-03-19T02:37:45;32.65;;;25.60;;
52894;SDS011;38759;53.396;6.722;2023-03-19T02:40:16;28.48;;;24.77;;
52894;SDS011;38759;53.396;6.722;2023-03-19T02:42:46;26.35;;;16.42;;
52894;SDS011;38759;53.396;6.722;2023-03-19T02:45:12;28.70;;;23.30;;
52894;SDS011;38759;53.396;6.722;2023-03-19T02:47:38;27.75;;;23.45;;
52894;SDS011;38759;53.396;6.722;2023-03-19T02:50:05;29.73;;;16.17;;
52894;SDS011;38759;53.396;6.722;2023-03-19T02:52:32;29.17;;;16.38;;
52894;SDS011;38759;53.396;6.722;2023-03-19T02:54:58;28.83;;;15.95;;
52894;SDS011;38759;53.396;6.722;2023-03-19T02:57:23;27.13;;;22.10;;
52894;SDS011;38759;53.396;6.722;2023-03-19T02:59:50;29.75;;;22.33;;
52894;SDS011;38759;53.396;6.722;2023-03-19T03:02:15;29.35;;;18.38;;
52894;SDS011;38759;53.396;6.722;2023-03-19T03:04:41;26.35;;;23.10;;
52894;SDS011;38759;53.396;6.722;2023-03-19T03:07:07;28.00;;;17.30;;
52894;SDS011;38759;53.396;6.722;2023-03-19T03:09:33;28.25;;;22.33;;
52894;SDS011;38759;53.396;6.722;2023-03-19T03:11:59;28.17;;;23.17;;
52894;SDS011;38759;53.396;6.722;2023-03-19T03:14:25;29.58;;;23.90;;
52894;SDS011;38759;53.396;6.722;2023-03-19T03:16:51;24.48;;;16.73;;
52894;SDS011;38759;53.396;6.722;2023-03-19T03:19:17;28.23;;;23.80;;
52894;SDS011;38759;53.396;6.722;2023-03-19T03:21:43;29.92;;;23.05;;
52894;SDS011;38759;53.396;6.722;2023-03-19T03:24:09;29.75;;;17.75;;
52894;SDS011;38759;53.396;6.722;2023-03-19T03:26:35;25.65;;;16.90;;
52894;SDS011;38759;53.396;6.722;2023-03-19T03:29:03;29.00;;;23.67;;
52894;SDS011;38759;53.396;6.722;2023-03-19T03:31:30;30.70;;;25.20;;
52894;SDS011;38759;53.396;6.722;2023-03-19T03:33:55;30.50;;;25.83;;
52894;SDS011;38759;53.396;6.722;2023-03-19T03:36:21;31.38;;;25.00;;
52894;SDS011;38759;53.396;6.722;2023-03-19T03:38:47;29.35;;;24.23;;
52894;SDS011;38759;53.396;6.722;2023-03-19T03:41:13;31.13;;;24.98;;
52894;SDS011;38759;53.396;6.722;2023-03-19T03:43:38;29.50;;;23.63;;
52894;SDS011;38759;53.396;6.722;2023-03-19T03:46:05;28.15;;;16.95;;
52894;SDS011;38759;53.396;6.722;2023-03-19T03:48:32;27.40;;;16.63;;
52894;SDS011;38759;53.396;6.722;2023-03-19T03:50:59;26.20;;;16.00;;
52894;SDS011;38759;53.396;6.722;2023-03-19T03:53:25;29.05;;;22.17;;
52894;SDS011;38759;53.396;6.722;2023-03-19T03:55:51;28.33;;;22.95;;
52894;SDS011;38759;53.396;6.722;2023-03-19T03:58:17;26.58;;;21.83;;
52894;SDS011;38759;53.396;6.722;2023-03-19T04:00:42;28.98;;;21.88;;
52894;SDS011;38759;53.396;6.722;2023-03-19T04:03:08;27.92;;;22.88;;
52894;SDS011;38759;53.396;6.722;2023-03-19T04:05:34;24.02;;;15.65;;
52894;SDS011;38759;53.396;6.722;2023-03-19T04:08:01;26.90;;;15.10;;
52894;SDS011;38759;53.396;6.722;2023-03-19T04:10:27;23.20;;;14.57;;
52894;SDS011;38759;53.396;6.722;2023-03-19T04:12:54;24.88;;;20.23;;
52894;SDS011;38759;53.396;6.722;2023-03-19T04:15:19;28.02;;;14.73;;
52894;SDS011;38759;53.396;6.722;2023-03-19T04:17:45;24.48;;;19.38;;
52894;SDS011;38759;53.396;6.722;2023-03-19T04:20:11;21.48;;;13.65;;
52894;SDS011;38759;53.396;6.722;2023-03-19T04:22:38;20.20;;;12.52;;
52894;SDS011;38759;53.396;6.722;2023-03-19T04:25:04;23.30;;;13.30;;
52894;SDS011;38759;53.396;6.722;2023-03-19T04:27:32;21.08;;;11.73;;
52894;SDS011;38759;53.396;6.722;2023-03-19T04:29:58;23.95;;;17.67;;
52894;SDS011;38759;53.396;6.722;2023-03-19T04:32:24;19.40;;;11.75;;
52894;SDS011;38759;53.396;6.722;2023-03-19T04:34:49;18.98;;;12.35;;
52894;SDS011;38759;53.396;6.722;2023-03-19T04:37:15;20.67;;;16.75;;
52894;SDS011;38759;53.396;6.722;2023-03-19T04:39:41;21.83;;;16.70;;
52894;SDS011;38759;53.396;6.722;2023-03-19T04:42:08;19.00;;;16.00;;
52894;SDS011;38759;53.396;6.722;2023-03-19T04:44:35;19.45;;;11.98;;
52894;SDS011;38759;53.396;6.722;2023-03-19T04:47:02;17.75;;;11.15;;
52894;SDS011;38759;53.396;6.722;2023-03-19T04:49:28;17.63;;;10.75;;
52894;SDS011;38759;53.396;6.722;2023-03-19T04:51:55;17.63;;;10.57;;
52894;SDS011;38759;53.396;6.722;2023-03-19T04:54:22;19.73;;;14.27;;
52894;SDS011;38759;53.396;6.722;2023-03-19T04:56:48;16.95;;;14.43;;
52894;SDS011;38759;53.396;6.722;2023-03-19T04:59:14;18.77;;;15.25;;
52894;SDS011;38759;53.396;6.722;2023-03-19T05:01:41;15.85;;;9.68;;
52894;SDS011;38759;53.396;6.722;2023-03-19T05:04:07;19.77;;;12.50;;
52894;SDS011;38759;53.396;6.722;2023-03-19T05:06:33;15.95;;;13.00;;
52894;SDS011;38759;53.396;6.722;2023-03-19T05:09:00;17.45;;;13.30;;
52894;SDS011;38759;53.396;6.722;2023-03-19T05:11:26;16.88;;;12.48;;
52894;SDS011;38759;53.396;6.722;2023-03-19T05:13:52;14.88;;;9.43;;
52894;SDS011;38759;53.396;6.722;2023-03-19T05:16:17;17.33;;;8.95;;
52894;SDS011;38759;53.396;6.722;2023-03-19T05:18:43;13.88;;;11.43;;
52894;SDS011;38759;53.396;6.722;2023-03-19T05:21:09;13.88;;;8.68;;
52894;SDS011;38759;53.396;6.722;2023-03-19T05:23:36;12.85;;;8.40;;
52894;SDS011;38759;53.396;6.722;2023-03-19T05:26:02;13.57;;;9.10;;
52894;SDS011;38759;53.396;6.722;2023-03-19T05:28:28;15.27;;;12.57;;
52894;SDS011;38759;53.396;6.722;2023-03-19T05:30:54;13.80;;;9.30;;
52894;SDS011;38759;53.396;6.722;2023-03-19T05:33:20;13.85;;;9.00;;
52894;SDS011;38759;53.396;6.722;2023-03-19T05:35:47;16.73;;;13.20;;
52894;SDS011;38759;53.396;6.722;2023-03-19T05:38:12;17.90;;;13.60;;
52894;SDS011;38759;53.396;6.722;2023-03-19T05:40:39;15.43;;;9.77;;
52894;SDS011;38759;53.396;6.722;2023-03-19T05:43:06;14.40;;;9.65;;
52894;SDS011;38759;53.396;6.722;2023-03-19T05:45:33;19.80;;;14.13;;
52894;SDS011;38759;53.396;6.722;2023-03-19T05:48:00;16.33;;;13.93;;
52894;SDS011;38759;53.396;6.722;2023-03-19T05:50:27;17.08;;;9.80;;
52894;SDS011;38759;53.396;6.722;2023-03-19T05:52:53;16.63;;;13.05;;
52894;SDS011;38759;53.396;6.722;2023-03-19T05:55:18;14.30;;;10.38;;
52894;SDS011;38759;53.396;6.722;2023-03-19T05:57:44;18.88;;;9.82;;
52894;SDS011;38759;53.396;6.722;2023-03-19T06:00:10;17.90;;;10.25;;
52894;SDS011;38759;53.396;6.722;2023-03-19T06:02:37;16.42;;;9.60;;
52894;SDS011;38759;53.396;6.722;2023-03-19T06:05:03;19.23;;;13.93;;
52894;SDS011;38759;53.396;6.722;2023-03-19T06:07:29;17.13;;;10.85;;
52894;SDS011;38759;53.396;6.722;2023-03-19T06:09:55;16.63;;;13.60;;
52894;SDS011;38759;53.396;6.722;2023-03-19T06:12:21;19.23;;;15.35;;
52894;SDS011;38759;53.396;6.722;2023-03-19T06:14:47;17.23;;;14.80;;
52894;SDS011;38759;53.396;6.722;2023-03-19T06:17:13;17.00;;;14.20;;
52894;SDS011;38759;53.396;6.722;2023-03-19T06:19:39;19.35;;;10.55;;
52894;SDS011;38759;53.396;6.722;2023-03-19T06:22:04;18.48;;;13.82;;
52894;SDS011;38759;53.396;6.722;2023-03-19T06:24:30;19.98;;;14.32;;
52894;SDS011;38759;53.396;6.722;2023-03-19T06:26:56;16.30;;;10.43;;
52894;SDS011;38759;53.396;6.722;2023-03-19T06:29:21;17.20;;;10.40;;
52894;SDS011;38759;53.396;6.722;2023-03-19T06:31:47;20.40;;;14.75;;
52894;SDS011;38759;53.396;6.722;2023-03-19T06:34:13;16.40;;;12.98;;
52894;SDS011;38759;53.396;6.722;2023-03-19T06:36:38;17.63;;;13.65;;
52894;SDS011;38759;53.396;6.722;2023-03-19T06:39:04;17.63;;;9.55;;
52894;SDS011;38759;53.396;6.722;2023-03-19T06:41:30;17.85;;;10.52;;
52894;SDS011;38759;53.396;6.722;2023-03-19T06:43:56;18.55;;;15.23;;
52894;SDS011;38759;53.396;6.722;2023-03-19T06:46:21;18.63;;;14.35;;
52894;SDS011;38759;53.396;6.722;2023-03-19T06:48:47;17.17;;;10.52;;
52894;SDS011;38759;53.396;6.722;2023-03-19T06:51:13;15.18;;;9.07;;
52894;SDS011;38759;53.396;6.722;2023-03-19T06:53:38;16.00;;;9.98;;
52894;SDS011;38759;53.396;6.722;2023-03-19T06:56:04;19.80;;;15.85;;
52894;SDS011;38759;53.396;6.722;2023-03-19T06:58:30;19.42;;;10.27;;
52894;SDS011;38759;53.396;6.722;2023-03-19T07:00:56;14.57;;;9.18;;
52894;SDS011;38759;53.396;6.722;2023-03-19T07:03:22;15.80;;;8.90;;
52894;SDS011;38759;53.396;6.722;2023-03-19T07:05:50;17.00;;;14.05;;
52894;SDS011;38759;53.396;6.722;2023-03-19T07:08:16;16.45;;;13.35;;
52894;SDS011;38759;53.396;6.722;2023-03-19T07:10:42;16.02;;;14.23;;
52894;SDS011;38759;53.396;6.722;2023-03-19T07:13:08;18.13;;;14.07;;
52894;SDS011;38759;53.396;6.722;2023-03-19T07:15:34;18.13;;;9.25;;
52894;SDS011;38759;53.396;6.722;2023-03-19T07:18:00;18.17;;;9.50;;
52894;SDS011;38759;53.396;6.722;2023-03-19T07:20:26;16.58;;;9.43;;
52894;SDS011;38759;53.396;6.722;2023-03-19T07:22:52;15.95;;;13.07;;
52894;SDS011;38759;53.396;6.722;2023-03-19T07:25:18;17.77;;;10.40;;
52894;SDS011;38759;53.396;6.722;2023-03-19T07:27:44;15.63;;;10.27;;
52894;SDS011;38759;53.396;6.722;2023-03-19T07:30:11;21.35;;;14.15;;
52894;SDS011;38759;53.396;6.722;2023-03-19T07:32:37;20.42;;;15.35;;
52894;SDS011;38759;53.396;6.722;2023-03-19T07:35:06;18.20;;;10.35;;
52894;SDS011;38759;53.396;6.722;2023-03-19T07:37:33;15.05;;;9.88;;
52894;SDS011;38759;53.396;6.722;2023-03-19T07:39:59;15.52;;;9.73;;
52894;SDS011;38759;53.396;6.722;2023-03-19T07:42:25;16.50;;;14.10;;
52894;SDS011;38759;53.396;6.722;2023-03-19T07:44:51;20.55;;;15.18;;
52894;SDS011;38759;53.396;6.722;2023-03-19T07:47:17;16.95;;;10.10;;
52894;SDS011;38759;53.396;6.722;2023-03-19T07:49:42;17.13;;;10.77;;
52894;SDS011;38759;53.396;6.722;2023-03-19T07:52:08;18.58;;;15.73;;
52894;SDS011;38759;53.396;6.722;2023-03-19T07:54:34;17.55;;;15.50;;
52894;SDS011;38759;53.396;6.722;2023-03-19T07:57:00;16.08;;;10.50;;
52894;SDS011;38759;53.396;6.722;2023-03-19T07:59:26;20.75;;;11.75;;
52894;SDS011;38759;53.396;6.722;2023-03-19T08:01:51;19.95;;;12.30;;
52894;SDS011;38759;53.396;6.722;2023-03-19T08:04:17;21.77;;;17.83;;
52894;SDS011;38759;53.396;6.722;2023-03-19T08:06:43;23.08;;;18.95;;
52894;SDS011;38759;53.396;6.722;2023-03-19T08:09:08;28.80;;;14.40;;
52894;SDS011;38759;53.396;6.722;2023-03-19T08:11:34;25.88;;;13.80;;
52894;SDS011;38759;53.396;6.722;2023-03-19T08:14:01;26.48;;;19.08;;
52894;SDS011;38759;53.396;6.722;2023-03-19T08:16:27;26.00;;;20.00;;
52894;SDS011;38759;53.396;6.722;2023-03-19T08:18:53;25.67;;;14.55;;
52894;SDS011;38759;53.396;6.722;2023-03-19T08:21:18;24.73;;;12.75;;
52894;SDS011;38759;53.396;6.722;2023-03-19T08:23:44;23.85;;;18.42;;
52894;SDS011;38759;53.396;6.722;2023-03-19T08:26:10;25.27;;;20.10;;
52894;SDS011;38759;53.396;6.722;2023-03-19T08:28:36;22.95;;;18.80;;
52894;SDS011;38759;53.396;6.722;2023-03-19T08:31:09;26.30;;;21.10;;
52894;SDS011;38759;53.396;6.722;2023-03-19T08:33:36;26.35;;;22.35;;
52894;SDS011;38759;53.396;6.722;2023-03-19T08:36:04;26.25;;;22.10;;
52894;SDS011;38759;53.396;6.722;2023-03-19T08:38:34;26.13;;;21.58;;
52894;SDS011;38759;53.396;6.722;2023-03-19T08:41:00;22.98;;;19.98;;
52894;SDS011;38759;53.396;6.722;2023-03-19T08:43:28;23.63;;;19.90;;
52894;SDS011;38759;53.396;6.722;2023-03-19T08:45:54;22.23;;;18.52;;
52894;SDS011;38759;53.396;6.722;2023-03-19T08:48:20;27.50;;;14.98;;
52894;SDS011;38759;53.396;6.722;2023-03-19T08:50:50;24.02;;;14.82;;
52894;SDS011;38759;53.396;6.722;2023-03-19T08:53:24;23.15;;;14.38;;
52894;SDS011;38759;53.396;6.722;2023-03-19T08:55:51;20.50;;;17.90;;
52894;SDS011;38759;53.396;6.722;2023-03-19T08:58:18;20.98;;;17.70;;
52894;SDS011;38759;53.396;6.722;2023-03-19T09:00:44;20.55;;;18.15;;
52894;SDS011;38759;53.396;6.722;2023-03-19T09:03:10;24.23;;;18.77;;
52894;SDS011;38759;53.396;6.722;2023-03-19T09:05:35;18.25;;;12.00;;
52894;SDS011;38759;53.396;6.722;2023-03-19T09:08:01;19.20;;;15.93;;
52894;SDS011;38759;53.396;6.722;2023-03-19T09:10:27;18.05;;;15.70;;
52894;SDS011;38759;53.396;6.722;2023-03-19T09:12:52;16.67;;;14.98;;
52894;SDS011;38759;53.396;6.722;2023-03-19T09:15:18;17.17;;;15.23;;
52894;SDS011;38759;53.396;6.722;2023-03-19T09:17:47;20.23;;;17.80;;
52894;SDS011;38759;53.396;6.722;2023-03-19T09:20:13;22.52;;;20.05;;
52894;SDS011;38759;53.396;6.722;2023-03-19T09:22:38;19.48;;;17.35;;
52894;SDS011;38759;53.396;6.722;2023-03-19T09:25:04;23.30;;;16.33;;
52894;SDS011;38759;53.396;6.722;2023-03-19T09:27:30;25.83;;;17.77;;
52894;SDS011;38759;53.396;6.722;2023-03-19T09:29:56;24.50;;;21.83;;
52894;SDS011;38759;53.396;6.722;2023-03-19T09:32:22;24.90;;;22.20;;
52894;SDS011;38759;53.396;6.722;2023-03-19T09:34:48;23.23;;;20.88;;
52894;SDS011;38759;53.396;6.722;2023-03-19T09:37:13;22.77;;;20.17;;
52894;SDS011;38759;53.396;6.722;2023-03-19T09:39:39;21.63;;;19.42;;
52894;SDS011;38759;53.396;6.722;2023-03-19T09:44:42;22.35;;;14.60;;
52894;SDS011;38759;53.396;6.722;2023-03-19T09:49:56;20.73;;;18.52;;
52894;SDS011;38759;53.396;6.722;2023-03-19T09:55:15;18.35;;;16.45;;
52894;SDS011;38759;53.396;6.722;2023-03-19T09:57:52;22.17;;;14.82;;
52894;SDS011;38759;53.396;6.722;2023-03-19T10:00:39;23.05;;;14.35;;
52894;SDS011;38759;53.396;6.722;2023-03-19T10:03:16;20.83;;;14.30;;
52894;SDS011;38759;53.396;6.722;2023-03-19T10:17:33;25.00;;;21.50;;
52894;SDS011;38759;53.396;6.722;2023-03-19T10:26:21;22.92;;;20.25;;
52894;SDS011;38759;53.396;6.722;2023-03-19T10:28:56;26.58;;;22.77;;
52894;SDS011;38759;53.396;6.722;2023-03-19T10:36:45;24.63;;;20.55;;
52894;SDS011;38759;53.396;6.722;2023-03-19T10:39:10;25.58;;;21.88;;
52894;SDS011;38759;53.396;6.722;2023-03-19T10:41:52;23.35;;;19.95;;
52894;SDS011;38759;53.396;6.722;2023-03-19T10:44:33;24.77;;;21.77;;
52894;SDS011;38759;53.396;6.722;2023-03-19T10:47:18;24.55;;;21.27;;
52894;SDS011;38759;53.396;6.722;2023-03-19T10:49:50;21.40;;;19.10;;
52894;SDS011;38759;53.396;6.722;2023-03-19T10:52:16;24.65;;;20.80;;
52894;SDS011;38759;53.396;6.722;2023-03-19T10:54:50;24.08;;;20.27;;
52894;SDS011;38759;53.396;6.722;2023-03-19T10:57:26;23.88;;;19.45;;
52894;SDS011;38759;53.396;6.722;2023-03-19T10:59:53;21.65;;;18.77;;
52894;SDS011;38759;53.396;6.722;2023-03-19T11:02:20;20.10;;;17.35;;
52894;SDS011;38759;53.396;6.722;2023-03-19T11:05:07;19.48;;;17.38;;
52894;SDS011;38759;53.396;6.722;2023-03-19T11:07:55;19.88;;;17.20;;
52894;SDS011;38759;53.396;6.722;2023-03-19T11:10:27;19.95;;;17.50;;
52894;SDS011;38759;53.396;6.722;2023-03-19T11:12:55;21.15;;;18.38;;
52894;SDS011;38759;53.396;6.722;2023-03-19T11:15:30;21.95;;;18.80;;
52894;SDS011;38759;53.396;6.722;2023-03-19T11:18:06;23.33;;;18.88;;
52894;SDS011;38759;53.396;6.722;2023-03-19T11:20:39;23.67;;;18.35;;
52894;SDS011;38759;53.396;6.722;2023-03-19T11:23:15;23.60;;;19.83;;
52894;SDS011;38759;53.396;6.722;2023-03-19T11:28:23;23.90;;;20.33;;
52894;SDS011;38759;53.396;6.722;2023-03-19T11:34:07;29.77;;;24.75;;
52894;SDS011;38759;53.396;6.722;2023-03-19T11:36:46;37.17;;;28.52;;
52894;SDS011;38759;53.396;6.722;2023-03-19T11:44:45;31.25;;;24.40;;
52894;SDS011;38759;53.396;6.722;2023-03-19T11:54:01;35.72;;;28.13;;
52894;SDS011;38759;53.396;6.722;2023-03-19T11:57:04;32.80;;;26.13;;
52894;SDS011;38759;53.396;6.722;2023-03-19T12:07:51;29.60;;;23.27;;
52894;SDS011;38759;53.396;6.722;2023-03-19T12:23:51;26.23;;;22.02;;
52894;SDS011;38759;53.396;6.722;2023-03-19T12:29:22;21.50;;;17.13;;
52894;SDS011;38759;53.396;6.722;2023-03-19T12:35:09;22.88;;;19.65;;
52894;SDS011;38759;53.396;6.722;2023-03-19T12:37:45;23.85;;;20.27;;
52894;SDS011;38759;53.396;6.722;2023-03-19T12:42:58;27.42;;;22.60;;
52894;SDS011;38759;53.396;6.722;2023-03-19T12:45:33;29.30;;;23.85;;
52894;SDS011;38759;53.396;6.722;2023-03-19T12:48:12;32.20;;;25.30;;
52894;SDS011;38759;53.396;6.722;2023-03-19T12:50:46;30.85;;;23.67;;
52894;SDS011;38759;53.396;6.722;2023-03-19T12:53:21;31.20;;;24.83;;
52894;SDS011;38759;53.396;6.722;2023-03-19T12:56:01;32.63;;;25.40;;
52894;SDS011;38759;53.396;6.722;2023-03-19T13:01:20;34.95;;;25.92;;
52894;SDS011;38759;53.396;6.722;2023-03-19T13:03:58;34.58;;;18.13;;
52894;SDS011;38759;53.396;6.722;2023-03-19T13:06:33;40.03;;;19.40;;
52894;SDS011;38759;53.396;6.722;2023-03-19T13:12:10;38.00;;;28.50;;
52894;SDS011;38759;53.396;6.722;2023-03-19T13:20:13;38.72;;;27.27;;
52894;SDS011;38759;53.396;6.722;2023-03-19T13:22:39;39.38;;;25.90;;
52894;SDS011;38759;53.396;6.722;2023-03-19T13:25:09;35.38;;;17.67;;
52894;SDS011;38759;53.396;6.722;2023-03-19T13:27:41;34.83;;;24.95;;
52894;SDS011;38759;53.396;6.722;2023-03-19T13:32:38;36.47;;;26.60;;
52894;SDS011;38759;53.396;6.722;2023-03-19T13:35:07;36.88;;;25.30;;
52894;SDS011;38759;53.396;6.722;2023-03-19T13:37:53;37.20;;;26.08;;
52894;SDS011;38759;53.396;6.722;2023-03-19T13:40:57;37.42;;;16.23;;
52894;SDS011;38759;53.396;6.722;2023-03-19T13:43:20;39.95;;;25.50;;
52894;SDS011;38759;53.396;6.722;2023-03-19T13:45:52;35.92;;;23.10;;
52894;SDS011;38759;53.396;6.722;2023-03-19T13:48:33;42.83;;;26.45;;
52894;SDS011;38759;53.396;6.722;2023-03-19T13:56:26;35.08;;;15.15;;
52894;SDS011;38759;53.396;6.722;2023-03-19T14:01:40;52.22;;;30.02;;
52894;SDS011;38759;53.396;6.722;2023-03-19T14:06:55;48.35;;;19.40;;
52894;SDS011;38759;53.396;6.722;2023-03-19T14:09:46;47.75;;;17.65;;
52894;SDS011;38759;53.396;6.722;2023-03-19T14:17:30;57.67;;;22.27;;
52894;SDS011;38759;53.396;6.722;2023-03-19T14:19:59;50.13;;;18.83;;
52894;SDS011;38759;53.396;6.722;2023-03-19T14:28:15;64.03;;;32.10;;
52894;SDS011;38759;53.396;6.722;2023-03-19T14:30:45;54.55;;;29.05;;
52894;SDS011;38759;53.396;6.722;2023-03-19T14:36:11;42.05;;;22.58;;
52894;SDS011;38759;53.396;6.722;2023-03-19T14:38:49;36.25;;;14.10;;
52894;SDS011;38759;53.396;6.722;2023-03-19T14:41:21;43.33;;;23.30;;
52894;SDS011;38759;53.396;6.722;2023-03-19T14:49:13;35.95;;;20.23;;
52894;SDS011;38759;53.396;6.722;2023-03-19T14:55:01;33.30;;;14.35;;
52894;SDS011;38759;53.396;6.722;2023-03-19T14:57:33;35.78;;;13.18;;
52894;SDS011;38759;53.396;6.722;2023-03-19T14:59:59;36.67;;;14.52;;
52894;SDS011;38759;53.396;6.722;2023-03-19T15:07:53;35.78;;;14.50;;
52894;SDS011;38759;53.396;6.722;2023-03-19T15:10:22;38.08;;;22.55;;
52894;SDS011;38759;53.396;6.722;2023-03-19T15:13:06;37.85;;;15.15;;
52894;SDS011;38759;53.396;6.722;2023-03-19T15:15:41;34.22;;;15.07;;
52894;SDS011;38759;53.396;6.722;2023-03-19T15:18:31;38.85;;;15.00;;
52894;SDS011;38759;53.396;6.722;2023-03-19T15:20:57;36.97;;;13.45;;
52894;SDS011;38759;53.396;6.722;2023-03-19T15:23:24;39.60;;;22.00;;
52894;SDS011;38759;53.396;6.722;2023-03-19T15:25:56;38.17;;;14.98;;
52894;SDS011;38759;53.396;6.722;2023-03-19T15:28:25;40.97;;;23.60;;
52894;SDS011;38759;53.396;6.722;2023-03-19T15:33:23;43.50;;;24.38;;
52894;SDS011;38759;53.396;6.722;2023-03-19T15:36:03;42.63;;;17.80;;
52894;SDS011;38759;53.396;6.722;2023-03-19T15:41:17;45.42;;;18.27;;
52894;SDS011;38759;53.396;6.722;2023-03-19T15:43:45;40.80;;;17.00;;
52894;SDS011;38759;53.396;6.722;2023-03-19T15:46:15;46.20;;;18.40;;
52894;SDS011;38759;53.396;6.722;2023-03-19T15:48:52;48.03;;;27.75;;
52894;SDS011;38759;53.396;6.722;2023-03-19T15:51:30;46.78;;;26.98;;
52894;SDS011;38759;53.396;6.722;2023-03-19T15:53:57;51.78;;;27.63;;
52894;SDS011;38759;53.396;6.722;2023-03-19T15:56:24;43.28;;;18.38;;
52894;SDS011;38759;53.396;6.722;2023-03-19T15:58:50;44.63;;;18.17;;
52894;SDS011;38759;53.396;6.722;2023-03-19T16:01:21;50.00;;;27.27;;
52894;SDS011;38759;53.396;6.722;2023-03-19T16:06:22;42.33;;;25.30;;
52894;SDS011;38759;53.396;6.722;2023-03-19T16:09:06;39.75;;;23.17;;
52894;SDS011;38759;53.396;6.722;2023-03-19T16:11:57;48.95;;;26.75;;
52894;SDS011;38759;53.396;6.722;2023-03-19T16:14:36;40.65;;;17.98;;
52894;SDS011;38759;53.396;6.722;2023-03-19T16:17:14;37.33;;;16.17;;
52894;SDS011;38759;53.396;6.722;2023-03-19T16:19:52;41.10;;;18.38;;
52894;SDS011;38759;53.396;6.722;2023-03-19T16:22:21;41.35;;;17.05;;
52894;SDS011;38759;53.396;6.722;2023-03-19T16:24:49;45.63;;;26.63;;
52894;SDS011;38759;53.396;6.722;2023-03-19T16:27:17;50.53;;;28.35;;
52894;SDS011;38759;53.396;6.722;2023-03-19T16:29:55;49.70;;;27.85;;
52894;SDS011;38759;53.396;6.722;2023-03-19T16:32:26;49.33;;;26.92;;
52894;SDS011;38759;53.396;6.722;2023-03-19T16:34:54;45.20;;;18.25;;
52894;SDS011;38759;53.396;6.722;2023-03-19T16:44:56;35.40;;;15.05;;
52894;SDS011;38759;53.396;6.722;2023-03-19T16:47:26;39.80;;;15.68;;
52894;SDS011;38759;53.396;6.722;2023-03-19T16:49:51;42.28;;;24.23;;
52894;SDS011;38759;53.396;6.722;2023-03-19T16:52:18;43.63;;;24.60;;
52894;SDS011;38759;53.396;6.722;2023-03-19T16:54:46;44.70;;;18.02;;
52894;SDS011;38759;53.396;6.722;2023-03-19T16:57:12;39.53;;;16.50;;
52894;SDS011;38759;53.396;6.722;2023-03-19T16:59:40;48.42;;;27.17;;
52894;SDS011;38759;53.396;6.722;2023-03-19T17:02:12;49.03;;;26.67;;
52894;SDS011;38759;53.396;6.722;2023-03-19T17:04:40;42.65;;;17.42;;
52894;SDS011;38759;53.396;6.722;2023-03-19T17:07:06;42.92;;;17.90;;